createdAt,value
2023-03-19T00:01:05.630Z,4.3
2023-03-19T00:02:21.000Z,4.2
2023-03-19T00:03:38.000Z,4.6
2023-03-19T00:04:36.214Z,4
2023-03-19T00:05:52.408Z,4.3
2023-03-19T00:07:26.601Z,4.7
2023-03-19T00:08:42.000Z,4
2023-03-19T00:09:58.986Z,4.1
2023-03-19T00:11:15.174Z,4.8
2023-03-19T00:12:30.387Z,4.5
2023-03-19T00:13:28.581Z,4.5
2023-03-19T00:15:02.771Z,4.7
2023-03-19T00:16:00.967Z,4.3
2023-03-19T00:17:35.000Z,4.5
2023-03-19T00:18:51.000Z,4
2023-03-19T00:20:07.542Z,4.7
2023-03-19T00:21:23.000Z,4.7
2023-03-19T00:22:21.932Z,4.8
2023-03-19T00:23:38.125Z,4.2
2023-03-19T00:25:12.000Z,4.3
2023-03-19T00:26:28.508Z,3.8
2023-03-19T00:27:44.000Z,4.5
2023-03-19T00:29:00.896Z,5
2023-03-19T00:30:16.000Z,4.7
2023-03-19T00:31:14.299Z,4.4
2023-03-19T00:32:48.491Z,4.6
2023-03-19T00:34:04.000Z,4.9
2023-03-19T00:35:20.000Z,4
2023-03-19T00:36:19.070Z,4.4
2023-03-19T00:38:16.000Z,4.5
2023-03-19T00:38:51.457Z,4.3
2023-03-19T00:40:25.639Z,4.6
2023-03-19T00:41:41.832Z,4.7
2023-03-19T00:42:58.039Z,4.2
2023-03-19T00:43:56.229Z,4.6
2023-03-19T00:45:30.422Z,5
2023-03-19T00:46:46.000Z,4.5
2023-03-19T00:48:02.809Z,4.3
2023-03-19T00:49:01.002Z,4.4
2023-03-19T00:50:35.195Z,4.6
2023-03-19T00:51:33.389Z,4.3
2023-03-19T00:52:48.598Z,4
2023-03-19T00:54:22.000Z,4.9
2023-03-19T00:55:38.000Z,4.6
2023-03-19T00:56:37.177Z,4.1
2023-03-19T00:58:11.367Z,5.3
2023-03-19T00:59:27.563Z,4.4
2023-03-19T01:00:43.755Z,4.7
2023-03-19T01:01:41.948Z,3.8
2023-03-19T01:03:16.000Z,4.5
2023-03-19T01:04:32.327Z,4.2
2023-03-19T01:05:47.000Z,4.2
2023-03-19T01:06:45.743Z,3.6
2023-03-19T01:08:19.000Z,4.4
2023-03-19T01:09:36.123Z,4.7
2023-03-19T01:10:52.000Z,4.1
2023-03-19T01:12:08.000Z,4.4
2023-03-19T01:13:24.708Z,4.3
2023-03-19T01:14:40.904Z,4.4
2023-03-19T01:15:57.091Z,4.7
2023-03-19T01:17:13.274Z,4.3
2023-03-19T01:18:29.000Z,4.3
2023-03-19T01:19:45.672Z,4.4
2023-03-19T01:21:01.873Z,4.5
2023-03-19T01:22:18.000Z,4.2
2023-03-19T01:23:33.266Z,4.2
2023-03-19T01:24:49.000Z,4.4
2023-03-19T01:26:05.000Z,4.3
2023-03-19T01:27:21.846Z,4.6
2023-03-19T01:28:38.000Z,4.3
2023-03-19T01:29:54.231Z,4.5
2023-03-19T01:31:10.416Z,4.9
2023-03-19T01:32:26.615Z,5
2023-03-19T01:33:42.813Z,4.6
2023-03-19T01:34:59.002Z,4.5
2023-03-19T01:36:38.000Z,4.3
2023-03-19T01:37:31.392Z,4.7
2023-03-19T01:38:47.000Z,4.3
2023-03-19T01:40:03.769Z,4.6
2023-03-19T01:41:19.000Z,4.7
2023-03-19T01:42:36.167Z,4.8
2023-03-19T01:43:51.000Z,4.5
2023-03-19T01:44:49.566Z,5
2023-03-19T01:46:23.749Z,5.1
2023-03-19T01:47:21.952Z,4.5
2023-03-19T01:48:56.142Z,4.1
2023-03-19T01:50:12.338Z,4.8
2023-03-19T01:51:28.535Z,4.9
2023-03-19T01:52:26.724Z,4.7
2023-03-19T01:53:42.918Z,4.8
2023-03-19T01:54:59.111Z,4.7
2023-03-19T01:56:33.304Z,4.8
2023-03-19T01:57:49.500Z,4.8
2023-03-19T01:59:05.000Z,4.8
2023-03-19T02:00:03.883Z,4.5
2023-03-19T02:01:38.189Z,4.7
2023-03-19T02:02:54.390Z,5
2023-03-19T02:04:10.582Z,5.1
2023-03-19T02:05:26.763Z,5
2023-03-19T02:06:42.968Z,4.9
2023-03-19T02:07:41.162Z,5.4
2023-03-19T02:09:15.346Z,4.9
2023-03-19T02:10:31.542Z,5.1
2023-03-19T02:11:47.000Z,4.9
2023-03-19T02:13:03.938Z,4.8
2023-03-19T02:14:20.000Z,5.1
2023-03-19T02:15:36.320Z,4.8
2023-03-19T02:16:52.504Z,4.4
2023-03-19T02:17:50.706Z,5.4
2023-03-19T02:19:23.913Z,5.4
2023-03-19T02:20:40.000Z,5
2023-03-19T02:21:56.308Z,4.9
2023-03-19T02:23:12.000Z,5.4
2023-03-19T02:24:28.682Z,4.6
2023-03-19T02:25:26.880Z,5.2
2023-03-19T02:27:01.000Z,5.1
2023-03-19T02:28:17.000Z,4.8
2023-03-19T02:29:33.000Z,5.6
2023-03-19T02:30:31.653Z,5
2023-03-19T02:32:05.841Z,4.8
2023-03-19T02:33:04.039Z,5
2023-03-19T02:34:38.000Z,5.5
2023-03-19T02:35:36.426Z,5
2023-03-19T02:37:09.000Z,5.5
2023-03-19T02:38:07.829Z,5.3
2023-03-19T02:39:42.000Z,5.5
2023-03-19T02:40:58.000Z,5.3
2023-03-19T02:42:14.000Z,5.5
2023-03-19T02:43:12.602Z,5.5
2023-03-19T02:44:28.795Z,5.5
2023-03-19T02:46:02.980Z,5
2023-03-19T02:47:01.181Z,6
2023-03-19T02:48:35.370Z,5.4
2023-03-19T02:49:51.000Z,5.7
2023-03-19T02:50:49.760Z,5.6
2023-03-19T02:52:23.943Z,5.8
2023-03-19T02:53:39.162Z,5.7
2023-03-19T02:55:18.000Z,5.2
2023-03-19T02:55:53.548Z,4.9
2023-03-19T02:57:27.000Z,5.1
2023-03-19T02:58:25.934Z,5.2
2023-03-19T02:59:42.127Z,5.1
2023-03-19T03:01:16.322Z,4.8
2023-03-19T03:02:32.000Z,4.9
2023-03-19T03:03:30.707Z,5.1
2023-03-19T03:05:04.000Z,5.7
2023-03-19T03:06:21.092Z,5.3
2023-03-19T03:07:37.275Z,5.3
2023-03-19T03:08:35.478Z,5.1
2023-03-19T03:10:08.682Z,5.1
2023-03-19T03:11:24.880Z,6
2023-03-19T03:12:41.000Z,5.2
2023-03-19T03:13:39.267Z,4.9
2023-03-19T03:15:13.462Z,5.2
2023-03-19T03:16:11.653Z,4.8
2023-03-19T03:17:45.848Z,5.3
2023-03-19T03:19:02.000Z,4.9
2023-03-19T03:20:18.232Z,4.9
2023-03-19T03:21:34.428Z,5.1
2023-03-19T03:22:32.618Z,5.1
2023-03-19T03:24:06.801Z,5.4
2023-03-19T03:25:05.004Z,5.1
2023-03-19T03:26:39.197Z,5.2
2023-03-19T03:27:55.390Z,5.4
2023-03-19T03:28:53.583Z,5.1
2023-03-19T03:30:49.000Z,4.8
2023-03-19T03:31:42.000Z,5.3
2023-03-19T03:32:59.000Z,4.8
2023-03-19T03:34:15.365Z,5.3
2023-03-19T03:35:31.567Z,4.9
2023-03-19T03:36:47.000Z,5
2023-03-19T03:38:03.942Z,4.9
2023-03-19T03:39:20.000Z,5.4
2023-03-19T03:40:18.336Z,5.2
2023-03-19T03:41:52.000Z,5.6
2023-03-19T03:43:08.000Z,5.5
2023-03-19T03:44:24.916Z,5.1
2023-03-19T03:45:41.117Z,5.4
2023-03-19T03:46:57.294Z,5.6
2023-03-19T03:48:13.495Z,5.8
2023-03-19T03:49:29.695Z,5.5
2023-03-19T03:50:45.000Z,5.1
2023-03-19T03:51:44.074Z,5.6
2023-03-19T03:52:59.284Z,5.4
2023-03-19T03:54:33.000Z,5.1
2023-03-19T03:55:31.671Z,5.2
2023-03-19T03:57:05.864Z,4.8
2023-03-19T03:58:22.057Z,5.3
2023-03-19T03:59:38.240Z,5.4
2023-03-19T04:00:54.448Z,5.4
2023-03-19T04:02:10.632Z,5.1
2023-03-19T04:03:26.829Z,5.6
2023-03-19T04:04:43.024Z,4.7
2023-03-19T04:05:59.000Z,5.4
2023-03-19T04:07:15.411Z,6.3
2023-03-19T04:08:31.000Z,5.6
2023-03-19T04:09:47.000Z,5.6
2023-03-19T04:11:03.000Z,5.5
2023-03-19T04:12:02.180Z,5.6
2023-03-19T04:13:35.389Z,5.5
2023-03-19T04:14:33.583Z,5.2
2023-03-19T04:16:07.000Z,5.4
2023-03-19T04:17:23.000Z,5
2023-03-19T04:18:22.166Z,5.9
2023-03-19T04:19:56.355Z,4.9
2023-03-19T04:21:12.000Z,5.7
2023-03-19T04:22:28.748Z,5.3
2023-03-19T04:23:26.943Z,5.4
2023-03-19T04:24:43.136Z,5.7
2023-03-19T04:26:17.322Z,6.5
2023-03-19T04:27:15.525Z,5.7
2023-03-19T04:28:49.000Z,5.2
2023-03-19T04:30:05.916Z,5.6
2023-03-19T04:31:21.000Z,5.4
2023-03-19T04:32:37.000Z,5.5
2023-03-19T04:33:53.516Z,5.5
2023-03-19T04:35:09.707Z,5.9
2023-03-19T04:36:25.903Z,5.9
2023-03-19T04:37:42.096Z,5.9
2023-03-19T04:38:58.000Z,5.1
2023-03-19T04:39:56.488Z,5.1
2023-03-19T04:41:12.684Z,5.8
2023-03-19T04:42:46.878Z,5.3
2023-03-19T04:44:03.000Z,5.7
2023-03-19T04:45:01.269Z,5.8
2023-03-19T04:46:17.465Z,5.8
2023-03-19T04:47:51.000Z,6
2023-03-19T04:49:07.855Z,5.2
2023-03-19T04:50:05.065Z,5
2023-03-19T04:51:39.000Z,5.3
2023-03-19T04:52:37.455Z,5.4
2023-03-19T04:53:53.650Z,5.8
2023-03-19T04:55:27.852Z,5.2
2023-03-19T04:56:44.000Z,5.6
2023-03-19T04:58:00.000Z,5.4
2023-03-19T04:59:16.000Z,5.8
2023-03-19T05:00:32.000Z,5.3
2023-03-19T05:01:48.825Z,5.5
2023-03-19T05:02:47.016Z,5.6
2023-03-19T05:04:21.000Z,5.4
2023-03-19T05:05:19.406Z,5.8
2023-03-19T05:06:52.617Z,5.3
2023-03-19T05:08:08.802Z,5.7
2023-03-19T05:09:25.007Z,5.2
2023-03-19T05:10:41.203Z,5.5
2023-03-19T05:11:57.000Z,5.9
2023-03-19T05:13:13.592Z,5.8
2023-03-19T05:14:29.000Z,5.8
2023-03-19T05:15:45.987Z,5.7
2023-03-19T05:17:02.176Z,5.4
2023-03-19T05:18:41.000Z,5.8
2023-03-19T05:19:34.000Z,5.7
2023-03-19T05:21:13.000Z,5.6
2023-03-19T05:22:06.960Z,5.8
2023-03-19T05:23:23.000Z,6.1
2023-03-19T05:25:02.000Z,6.2
2023-03-19T05:25:55.000Z,6
2023-03-19T05:27:34.000Z,5.7
2023-03-19T05:28:09.936Z,6.1
2023-03-19T05:29:44.000Z,6.1
2023-03-19T05:30:42.326Z,6.4
2023-03-19T05:32:16.522Z,6.6
2023-03-19T05:33:32.000Z,6
2023-03-19T05:34:48.000Z,6.1
2023-03-19T05:35:47.108Z,6.6
2023-03-19T05:37:21.000Z,5.5
2023-03-19T05:38:37.000Z,6.2
2023-03-19T05:39:53.000Z,6
2023-03-19T05:40:51.889Z,5.4
2023-03-19T05:42:26.000Z,5.2
2023-03-19T05:43:24.279Z,5.8
2023-03-19T05:44:58.000Z,4.6
2023-03-19T05:46:14.000Z,4.9
2023-03-19T05:47:30.000Z,6.1
2023-03-19T05:48:29.060Z,5.3
2023-03-19T05:50:03.000Z,5.2
2023-03-19T05:51:19.000Z,5.6
2023-03-19T05:52:35.000Z,4.6
2023-03-19T05:53:51.000Z,4.7
2023-03-19T05:55:07.000Z,5
2023-03-19T05:56:23.000Z,4.8
2023-03-19T05:57:39.000Z,4.7
2023-03-19T05:58:55.000Z,5
2023-03-19T06:00:11.000Z,5
2023-03-19T06:01:10.148Z,5.3
2023-03-19T06:02:44.000Z,5.3
2023-03-19T06:04:00.000Z,4.9
2023-03-19T06:05:16.000Z,5.3
2023-03-19T06:06:32.000Z,5.6
2023-03-19T06:07:49.000Z,5.4
2023-03-19T06:08:47.320Z,5.3
2023-03-19T06:10:21.000Z,4.8
2023-03-19T06:12:00.000Z,4.6
2023-03-19T06:12:53.000Z,5.5
2023-03-19T06:13:52.100Z,5.5
2023-03-19T06:15:08.296Z,4.9
2023-03-19T06:16:42.000Z,4.5
2023-03-19T06:17:40.686Z,4.7
2023-03-19T06:18:56.881Z,4.3
2023-03-19T06:20:31.076Z,4.4
2023-03-19T06:21:29.271Z,4.2
2023-03-19T06:22:45.467Z,5
2023-03-19T06:24:19.661Z,4.5
2023-03-19T06:25:17.857Z,4.4
2023-03-19T06:26:52.000Z,4.5
2023-03-19T06:28:31.000Z,4.7
2023-03-19T06:29:23.000Z,4.9
2023-03-19T06:30:39.000Z,4.1
2023-03-19T06:31:38.017Z,4.5
2023-03-19T06:33:12.000Z,4.8
2023-03-19T06:34:28.000Z,4.6
2023-03-19T06:35:44.000Z,4.2
2023-03-19T06:36:42.797Z,4.1
2023-03-19T06:38:17.000Z,4.1
2023-03-19T06:39:15.187Z,4.3
2023-03-19T06:40:49.000Z,4.5
2023-03-19T06:42:05.000Z,4.4
2023-03-19T06:43:03.772Z,3.9
2023-03-19T06:44:37.000Z,4.1
2023-03-19T06:45:54.000Z,3.5
2023-03-19T06:46:52.357Z,4.5
2023-03-19T06:48:26.000Z,4.2
2023-03-19T06:49:42.748Z,4.3
2023-03-19T06:50:58.000Z,4.7
2023-03-19T06:52:38.000Z,4.9
2023-03-19T06:53:31.000Z,4.5
2023-03-19T06:54:47.000Z,4.3
2023-03-19T06:56:03.000Z,3.9
2023-03-19T06:57:01.917Z,4
2023-03-19T06:58:36.000Z,4.4
2023-03-19T06:59:34.307Z,5.3
2023-03-19T07:01:31.000Z,4.6
2023-03-19T07:02:05.826Z,5.3
2023-03-19T07:03:40.021Z,5.1
2023-03-19T07:04:56.000Z,6.3
2023-03-19T07:06:12.000Z,5.4
2023-03-19T07:07:28.000Z,5.4
2023-03-19T07:08:44.000Z,5.8
2023-03-19T07:10:00.987Z,6.4
2023-03-19T07:11:17.000Z,5.9
2023-03-19T07:12:15.386Z,5.7
2023-03-19T07:13:31.582Z,5.8
2023-03-19T07:14:47.776Z,5.3
2023-03-19T07:16:21.000Z,5.7
2023-03-19T07:18:01.000Z,5.9
2023-03-19T07:18:54.000Z,5.8
2023-03-19T07:20:10.000Z,5.3
2023-03-19T07:21:26.000Z,5.9
2023-03-19T07:22:24.946Z,6
2023-03-19T07:23:59.000Z,5.6
2023-03-19T07:24:57.335Z,6.1
2023-03-19T07:26:13.531Z,5.3
2023-03-19T07:28:10.000Z,5.5
2023-03-19T07:29:03.000Z,6.5
2023-03-19T07:30:02.115Z,6.1
2023-03-19T07:31:36.311Z,5.5
2023-03-19T07:32:52.000Z,6
2023-03-19T07:34:08.000Z,6.4
2023-03-19T07:35:07.010Z,5.8
2023-03-19T07:36:40.000Z,5.4
2023-03-19T07:37:38.471Z,5.5
2023-03-19T07:38:54.666Z,5.2
2023-03-19T07:40:28.861Z,5.7
2023-03-19T07:41:45.000Z,5.8
2023-03-19T07:43:01.000Z,5.8
2023-03-19T07:44:17.000Z,6
2023-03-19T07:45:15.641Z,6
2023-03-19T07:46:49.836Z,5.8
2023-03-19T07:48:29.000Z,6.4
2023-03-19T07:49:22.000Z,5.8
2023-03-19T07:50:38.000Z,5.9
2023-03-19T07:51:36.616Z,5.5
2023-03-19T07:53:33.000Z,5.7
2023-03-19T07:54:09.007Z,5.7
2023-03-19T07:55:43.000Z,5.9
2023-03-19T07:56:59.000Z,6
2023-03-19T07:58:15.000Z,5.9
2023-03-19T07:59:31.788Z,6
2023-03-19T08:00:47.983Z,6.2
2023-03-19T08:02:27.000Z,5.9
2023-03-19T08:03:20.373Z,6.2
2023-03-19T08:04:18.568Z,6.2
2023-03-19T08:05:52.764Z,6
2023-03-19T08:06:50.958Z,5.8
2023-03-19T08:08:25.000Z,6
2023-03-19T08:09:41.000Z,5.8
2023-03-19T08:10:56.000Z,6.6
2023-03-19T08:12:35.000Z,5.4
2023-03-19T08:13:29.000Z,6.6
2023-03-19T08:14:45.000Z,6.7
2023-03-19T08:15:43.510Z,6.6
2023-03-19T08:17:16.000Z,6.3
2023-03-19T08:18:14.914Z,6.6
2023-03-19T08:19:49.000Z,6.1
2023-03-19T08:20:47.305Z,6.7
2023-03-19T08:22:21.000Z,6.2
2023-03-19T08:23:19.695Z,6.3
2023-03-19T08:24:53.890Z,6.7
2023-03-19T08:26:10.000Z,6.3
2023-03-19T08:27:26.000Z,6.9
2023-03-19T08:28:24.475Z,7.3
2023-03-19T08:29:58.000Z,7
2023-03-19T08:30:56.866Z,7.8
2023-03-19T08:32:31.000Z,7.3
2023-03-19T08:33:47.256Z,6.9
2023-03-19T08:35:03.000Z,6.6
2023-03-19T08:36:01.646Z,7.2
2023-03-19T08:37:35.842Z,7
2023-03-19T08:38:52.000Z,6.8
2023-03-19T08:40:08.000Z,6.9
2023-03-19T08:41:06.428Z,6.5
2023-03-19T08:42:22.625Z,6.6
2023-03-19T08:43:38.820Z,6.6
2023-03-19T08:45:13.000Z,6.9
2023-03-19T08:46:29.000Z,7.1
2023-03-19T08:47:45.000Z,6.5
2023-03-19T08:49:01.000Z,6.5
2023-03-19T08:50:17.000Z,6.8
2023-03-19T08:51:33.993Z,6.4
2023-03-19T08:52:50.000Z,7.1
2023-03-19T08:54:06.000Z,6.4
2023-03-19T08:55:22.579Z,6.5
2023-03-19T08:56:20.774Z,6.3
2023-03-19T08:57:36.969Z,6.2
2023-03-19T08:59:11.168Z,6.5
2023-03-19T09:00:27.360Z,6.5
2023-03-19T09:01:25.555Z,6.9
2023-03-19T09:02:58.000Z,6.5
2023-03-19T09:04:14.000Z,6.4
2023-03-19T09:05:13.170Z,5.9
2023-03-19T09:06:29.364Z,6.4
2023-03-19T09:08:26.000Z,6.1
2023-03-19T09:09:01.754Z,5.5
2023-03-19T09:10:35.000Z,5.6
2023-03-19T09:11:52.000Z,6
2023-03-19T09:13:08.341Z,6.1
2023-03-19T09:14:47.000Z,5.7
2023-03-19T09:15:40.000Z,5.6
2023-03-19T09:16:56.000Z,5.5
2023-03-19T09:18:36.000Z,5.1
2023-03-19T09:19:11.316Z,5.4
2023-03-19T09:20:45.511Z,5.1
2023-03-19T09:22:24.000Z,5.2
2023-03-19T09:23:17.902Z,5.7
2023-03-19T09:24:16.097Z,6.1
2023-03-19T09:25:50.000Z,6
2023-03-19T09:27:06.487Z,5.6
2023-03-19T09:28:45.000Z,5.3
2023-03-19T09:29:37.000Z,5.5
2023-03-19T09:30:54.101Z,5.4
2023-03-19T09:32:10.291Z,5.5
2023-03-19T09:33:26.000Z,5.4
2023-03-19T09:34:24.687Z,5.4
2023-03-19T09:35:58.000Z,5.4
2023-03-19T09:37:15.076Z,5.5
2023-03-19T09:38:31.272Z,5.4
2023-03-19T09:39:29.467Z,4.6
2023-03-19T09:41:03.000Z,4.9
2023-03-19T09:42:19.000Z,5.4
2023-03-19T09:43:59.000Z,5.2
2023-03-19T09:45:15.000Z,5
2023-03-19T09:46:31.000Z,4.9
2023-03-19T09:47:06.638Z,5.2
2023-03-19T09:48:40.000Z,4.7
2023-03-19T09:49:39.028Z,5
2023-03-19T09:51:13.000Z,4.9
2023-03-19T09:52:11.418Z,4.4
2023-03-19T09:54:08.000Z,4.9
2023-03-19T09:55:01.808Z,5
2023-03-19T09:56:18.003Z,4.8
2023-03-19T09:57:34.198Z,4.9
2023-03-19T09:58:50.000Z,4.7
2023-03-19T09:59:48.589Z,5.1
2023-03-19T10:01:22.842Z,4.7
2023-03-19T10:02:21.093Z,5.4
2023-03-19T10:03:54.000Z,5
2023-03-19T10:05:10.000Z,4.5
2023-03-19T10:06:26.000Z,4.7
2023-03-19T10:07:42.000Z,4.4
2023-03-19T10:08:59.000Z,4.5
2023-03-19T10:09:57.335Z,4.3
2023-03-19T10:11:31.000Z,4.1
2023-03-19T10:12:47.000Z,4.5
2023-03-19T10:14:03.909Z,4.9
2023-03-19T10:15:20.115Z,4.5
2023-03-19T10:16:36.307Z,4.5
2023-03-19T10:17:52.000Z,4.3
2023-03-19T10:18:50.699Z,4.7
2023-03-19T10:20:24.000Z,4.7
2023-03-19T10:21:41.000Z,4.4
2023-03-19T10:22:57.000Z,4.7
2023-03-19T10:23:55.479Z,4.7
2023-03-19T10:25:11.675Z,4.5
2023-03-19T10:27:08.000Z,4.3
2023-03-19T10:28:02.000Z,4.5
2023-03-19T10:29:18.000Z,4.8
2023-03-19T10:30:34.000Z,4.9
2023-03-19T10:31:50.649Z,5
2023-03-19T10:32:48.844Z,4.9
2023-03-19T10:34:23.000Z,4.8
2023-03-19T10:35:39.293Z,4.9
2023-03-19T10:36:55.542Z,5
2023-03-19T10:38:10.817Z,4.5
2023-03-19T10:39:27.000Z,4.4
2023-03-19T10:40:25.207Z,4.5
2023-03-19T10:41:59.000Z,4.4
2023-03-19T10:42:57.597Z,4.5
2023-03-19T10:44:31.793Z,4.5
2023-03-19T10:45:29.988Z,4.9
2023-03-19T10:47:04.183Z,5
2023-03-19T10:48:20.378Z,5
2023-03-19T10:49:36.573Z,5
2023-03-19T10:50:34.768Z,4.3
2023-03-19T10:52:08.000Z,4.5
2023-03-19T10:53:07.159Z,4.4
2023-03-19T10:54:41.000Z,4.5
2023-03-19T10:55:57.000Z,4.3
2023-03-19T10:57:13.000Z,4.5
2023-03-19T10:58:11.940Z,4.6
2023-03-19T10:59:46.136Z,4.8
2023-03-19T11:01:02.000Z,4.1
2023-03-19T11:02:18.000Z,4.4
2023-03-19T11:03:34.000Z,3.9
2023-03-19T11:04:50.000Z,4.1
2023-03-19T11:05:49.114Z,3.7
2023-03-19T11:07:23.000Z,4.3
2023-03-19T11:08:21.504Z,4.3
2023-03-19T11:09:55.000Z,4.1
2023-03-19T11:11:11.000Z,3.7
2023-03-19T11:12:27.000Z,3.9
2023-03-19T11:13:42.583Z,3.7
2023-03-19T11:14:57.000Z,4
2023-03-19T11:16:13.000Z,4
2023-03-19T11:17:12.183Z,3.8
2023-03-19T11:18:46.378Z,3.8
2023-03-19T11:19:44.574Z,4.2
2023-03-19T11:21:18.000Z,3.8
2023-03-19T11:22:34.970Z,3.6
2023-03-19T11:23:51.000Z,3.9
2023-03-19T11:25:30.000Z,3.5
2023-03-19T11:26:46.000Z,3.7
2023-03-19T11:27:39.000Z,3.7
2023-03-19T11:28:55.000Z,4.1
2023-03-19T11:30:12.000Z,3.7
2023-03-19T11:31:28.000Z,3.4
2023-03-19T11:32:44.526Z,3.7
2023-03-19T11:34:00.729Z,3.3
2023-03-19T11:34:58.924Z,3.3
2023-03-19T11:36:33.000Z,3.6
2023-03-19T11:37:49.000Z,4.1
2023-03-19T11:39:05.000Z,3.3
2023-03-19T11:40:21.705Z,3.3
2023-03-19T11:41:37.000Z,3.5
2023-03-19T11:42:54.103Z,3.5
2023-03-19T11:44:10.000Z,3.4
2023-03-19T11:45:08.488Z,3.4
2023-03-19T11:46:42.000Z,3.8
2023-03-19T11:47:58.000Z,3.5
2023-03-19T11:49:38.000Z,3.3
2023-03-19T11:50:31.000Z,3.4
2023-03-19T11:51:47.000Z,3.1
2023-03-19T11:53:03.661Z,3.3
2023-03-19T11:54:19.000Z,3.3
2023-03-19T11:55:36.046Z,2.8
2023-03-19T11:56:52.000Z,3
2023-03-19T11:57:50.443Z,2.9
2023-03-19T11:59:47.000Z,3.2
2023-03-19T12:00:40.000Z,3.4
2023-03-19T12:01:39.088Z,3.2
2023-03-19T12:03:13.349Z,3.2
2023-03-19T12:04:52.000Z,3.3
2023-03-19T12:05:45.000Z,3.4
2023-03-19T12:07:02.000Z,3.1
2023-03-19T12:08:18.000Z,3.2
2023-03-19T12:09:34.000Z,2.9
2023-03-19T12:10:50.853Z,3.5
2023-03-19T12:12:06.119Z,3
2023-03-19T12:13:22.000Z,3.6
2023-03-19T12:14:38.508Z,3.4
2023-03-19T12:15:54.000Z,3.1
2023-03-19T12:17:10.903Z,2.9
2023-03-19T12:18:27.000Z,3.6
2023-03-19T12:19:43.280Z,3.4
2023-03-19T12:20:59.494Z,3
2023-03-19T12:23:31.000Z,3.4
2023-03-19T12:24:48.000Z,3
2023-03-19T12:26:04.265Z,2.9
2023-03-19T12:27:20.456Z,3.3
2023-03-19T12:28:36.000Z,3.3
2023-03-19T12:29:52.847Z,3.2
2023-03-19T12:31:09.000Z,3.2
2023-03-19T12:32:25.000Z,3.2
2023-03-19T12:33:41.000Z,3.3
2023-03-19T12:34:57.630Z,3.5
2023-03-19T12:36:13.819Z,3.2
2023-03-19T12:37:30.000Z,3.1
2023-03-19T12:38:46.214Z,3
2023-03-19T12:40:02.000Z,3.5
2023-03-19T12:41:18.000Z,2.8
2023-03-19T12:42:34.787Z,3
2023-03-19T12:43:51.136Z,3.2
2023-03-19T12:45:07.336Z,3.1
2023-03-19T12:46:23.529Z,3
2023-03-19T12:48:55.000Z,2.9
2023-03-19T12:50:12.115Z,3.1
2023-03-19T12:51:28.000Z,2.7
2023-03-19T12:52:44.617Z,3.3
2023-03-19T12:54:00.822Z,3.1
2023-03-19T12:55:17.000Z,2.9
2023-03-19T12:56:33.000Z,2.9
2023-03-19T12:57:49.401Z,3.2
2023-03-19T12:59:05.000Z,3.2
2023-03-19T13:00:21.796Z,3
2023-03-19T13:01:37.991Z,2.9
2023-03-19T13:02:54.000Z,3.4
2023-03-19T13:04:10.000Z,3.6
2023-03-19T13:05:08.577Z,3.2
2023-03-19T13:06:42.772Z,3
2023-03-19T13:07:58.961Z,3.1
2023-03-19T13:09:15.162Z,3.2
2023-03-19T13:10:31.366Z,3.1
2023-03-19T13:11:47.000Z,2.9
2023-03-19T13:13:03.746Z,3.4
2023-03-19T13:14:19.938Z,3.2
2023-03-19T13:15:36.139Z,3
2023-03-19T13:16:52.323Z,3.4
2023-03-19T13:18:08.000Z,3.4
2023-03-19T13:19:24.000Z,3.4
2023-03-19T13:20:40.000Z,3
2023-03-19T13:21:57.000Z,3.2
2023-03-19T13:23:13.305Z,3.4
2023-03-19T13:24:29.000Z,3.2
2023-03-19T13:25:45.000Z,3.2
2023-03-19T13:27:01.889Z,2.8
2023-03-19T13:28:18.077Z,3
2023-03-19T13:29:34.273Z,3.3
2023-03-19T13:30:32.473Z,3.2
2023-03-19T13:32:06.821Z,2.7
2023-03-19T13:33:23.006Z,3.3
2023-03-19T13:34:39.000Z,3.3
2023-03-19T13:35:37.400Z,3.1
2023-03-19T13:37:11.743Z,3.2
2023-03-19T13:38:27.000Z,3.2
2023-03-19T13:39:44.000Z,3.1
2023-03-19T13:41:00.330Z,3.2
2023-03-19T13:42:16.528Z,3.5
2023-03-19T13:43:31.741Z,3.2
2023-03-19T13:44:47.920Z,3.1
2023-03-19T13:46:04.126Z,3.1
2023-03-19T13:47:20.323Z,3.4
2023-03-19T13:48:36.000Z,3.3
2023-03-19T13:49:52.704Z,3.4
2023-03-19T13:51:08.897Z,3.3
2023-03-19T13:52:25.000Z,2.9
2023-03-19T13:53:23.283Z,3.2
2023-03-19T13:54:57.482Z,3.7
2023-03-19T13:55:55.668Z,3.3
2023-03-19T13:57:29.861Z,3
2023-03-19T13:58:46.056Z,3.1
2023-03-19T14:00:02.000Z,3.2
2023-03-19T14:01:00.560Z,3.3
2023-03-19T14:02:34.000Z,3.3
2023-03-19T14:03:50.000Z,3.3
2023-03-19T14:05:07.000Z,3.3
2023-03-19T14:06:05.332Z,3.5
2023-03-19T14:07:39.520Z,3.5
2023-03-19T14:08:37.717Z,3.3
2023-03-19T14:10:10.000Z,3.3
2023-03-19T14:11:27.127Z,4
2023-03-19T14:12:43.000Z,3.1
2023-03-19T14:13:41.663Z,3.4
2023-03-19T14:15:15.859Z,3.2
2023-03-19T14:16:32.000Z,3.5
2023-03-19T14:17:48.000Z,3.4
2023-03-19T14:19:04.434Z,3.3
2023-03-19T14:20:20.000Z,3.4
2023-03-19T14:21:36.817Z,3.4
2023-03-19T14:22:53.015Z,3.1
2023-03-19T14:24:09.201Z,3.2
2023-03-19T14:25:06.415Z,3.8
2023-03-19T14:26:22.608Z,3.5
2023-03-19T14:27:56.000Z,3.1
2023-03-19T14:29:13.000Z,2.9
2023-03-19T14:30:29.187Z,3.4
2023-03-19T14:31:27.380Z,3.1
2023-03-19T14:33:01.573Z,3
2023-03-19T14:34:17.764Z,3.4
2023-03-19T14:35:33.000Z,3.3
2023-03-19T14:36:50.160Z,3.3
2023-03-19T14:38:06.356Z,3.1
2023-03-19T14:39:22.544Z,2.4
2023-03-19T14:40:38.729Z,2.2
2023-03-19T14:41:53.000Z,2.5
2023-03-19T14:43:10.000Z,2.4
2023-03-19T14:44:26.349Z,2.6
2023-03-19T14:45:42.000Z,2.7
2023-03-19T14:46:40.726Z,2.5
2023-03-19T14:48:13.000Z,2.7
2023-03-19T14:49:30.123Z,2.7
2023-03-19T14:50:46.315Z,2.2
2023-03-19T14:51:44.518Z,2.4
2023-03-19T14:53:18.715Z,2.8
2023-03-19T14:54:34.000Z,2.6
2023-03-19T14:55:51.000Z,2.7
2023-03-19T14:56:48.313Z,2.5
2023-03-19T14:58:22.506Z,2.3
2023-03-19T14:59:20.700Z,2.5
2023-03-19T15:00:54.893Z,2.7
2023-03-19T15:02:11.000Z,2.8
2023-03-19T15:03:09.280Z,2.5
2023-03-19T15:04:43.466Z,2.5
2023-03-19T15:05:59.000Z,2.4
2023-03-19T15:07:15.860Z,2.6
2023-03-19T15:08:32.058Z,2.4
2023-03-19T15:09:48.250Z,2.7
2023-03-19T15:11:03.469Z,2.9
2023-03-19T15:12:18.669Z,2.5
2023-03-19T15:13:34.000Z,2.4
2023-03-19T15:14:51.065Z,2.8
2023-03-19T15:16:07.000Z,2.3
2023-03-19T15:17:23.444Z,2.3
2023-03-19T15:18:39.646Z,2.3
2023-03-19T15:19:55.839Z,2.4
2023-03-19T15:21:12.000Z,2.5
2023-03-19T15:22:10.226Z,2.5
2023-03-19T15:23:44.413Z,2.2
2023-03-19T15:25:00.618Z,2.5
2023-03-19T15:26:16.807Z,2.7
2023-03-19T15:27:15.000Z,2.3
2023-03-19T15:28:48.210Z,2.5
2023-03-19T15:29:46.403Z,2.8
2023-03-19T15:31:20.000Z,2.5
2023-03-19T15:32:36.000Z,2.8
2023-03-19T15:33:52.000Z,2.8
2023-03-19T15:35:09.000Z,2.3
2023-03-19T15:36:25.000Z,2.7
2023-03-19T15:37:23.565Z,2
2023-03-19T15:38:57.913Z,2.4
2023-03-19T15:40:14.090Z,2.8
2023-03-19T15:41:30.410Z,2.8
2023-03-19T15:42:46.599Z,2.3
2023-03-19T15:44:02.797Z,2.4
2023-03-19T15:45:19.000Z,2.6
2023-03-19T15:46:35.190Z,2.4
2023-03-19T15:47:33.375Z,2.7
2023-03-19T15:49:07.000Z,2.5
2023-03-19T15:50:05.762Z,2.6
2023-03-19T15:51:39.000Z,2.6
2023-03-19T15:52:38.147Z,3.1
2023-03-19T15:54:12.000Z,2.6
2023-03-19T15:55:28.532Z,3
2023-03-19T15:56:44.000Z,2.9
2023-03-19T15:58:00.917Z,3
2023-03-19T15:59:17.000Z,3
2023-03-19T16:00:33.305Z,3
2023-03-19T16:01:49.000Z,2.8
2023-03-19T16:02:47.809Z,2.6
2023-03-19T16:04:21.994Z,3
2023-03-19T16:05:20.194Z,2.4
2023-03-19T16:06:53.000Z,3.2
2023-03-19T16:07:51.606Z,2.8
2023-03-19T16:09:25.000Z,2.7
2023-03-19T16:10:41.991Z,2.8
2023-03-19T16:11:58.000Z,2.7
2023-03-19T16:13:14.386Z,2.8
2023-03-19T16:14:29.595Z,3
2023-03-19T16:15:44.804Z,2.7
2023-03-19T16:17:00.018Z,2.8
2023-03-19T16:18:16.000Z,2.7
2023-03-19T16:19:32.418Z,2.9
2023-03-19T16:20:30.605Z,3.4
2023-03-19T16:22:04.000Z,3
2023-03-19T16:23:20.000Z,2.6
2023-03-19T16:24:37.184Z,3.1
2023-03-19T16:25:35.378Z,3
2023-03-19T16:27:08.000Z,3
2023-03-19T16:28:06.781Z,3.2
2023-03-19T16:29:40.971Z,3.3
2023-03-19T16:30:57.168Z,3.1
2023-03-19T16:32:36.000Z,3
2023-03-19T16:33:29.548Z,3.1
2023-03-19T16:34:45.748Z,3.5
2023-03-19T16:36:01.000Z,3
2023-03-19T16:37:18.131Z,3.2
2023-03-19T16:38:16.329Z,2.9
2023-03-19T16:39:50.521Z,3.1
2023-03-19T16:40:48.716Z,3.2
2023-03-19T16:42:22.000Z,3.3
2023-03-19T16:43:39.104Z,3
2023-03-19T16:44:54.000Z,2.7
2023-03-19T16:45:52.516Z,2.7
2023-03-19T16:47:26.699Z,3
2023-03-19T16:48:42.000Z,3.2
2023-03-19T16:49:59.000Z,2.8
2023-03-19T16:51:15.278Z,2.7
2023-03-19T16:52:31.000Z,3.1
2023-03-19T16:53:47.796Z,3
2023-03-19T16:55:03.989Z,3
2023-03-19T16:56:02.181Z,3.4
2023-03-19T16:57:36.374Z,2.7
2023-03-19T16:58:34.567Z,3.1
2023-03-19T17:00:08.760Z,3.1
2023-03-19T17:01:24.000Z,3
2023-03-19T17:02:41.151Z,3.1
2023-03-19T17:03:57.330Z,3.3
2023-03-19T17:05:13.000Z,2.9
2023-03-19T17:06:11.724Z,3.2
2023-03-19T17:07:45.912Z,3.5
2023-03-19T17:08:43.126Z,2.9
2023-03-19T17:10:17.312Z,3.2
2023-03-19T17:11:33.512Z,3.4
2023-03-19T17:12:48.000Z,3.4
2023-03-19T17:14:04.000Z,3.3
2023-03-19T17:15:21.000Z,3.4
2023-03-19T17:16:19.308Z,3.6
2023-03-19T17:17:52.517Z,3.1
2023-03-19T17:19:08.700Z,3.2
2023-03-19T17:20:47.000Z,3.3
2023-03-19T17:21:41.000Z,3.6
2023-03-19T17:22:57.000Z,3.4
2023-03-19T17:24:13.489Z,3.5
2023-03-19T17:25:29.000Z,3.5
2023-03-19T17:26:45.865Z,3.6
2023-03-19T17:28:25.000Z,3.3
2023-03-19T17:29:18.243Z,3.6
2023-03-19T17:30:34.438Z,3.9
2023-03-19T17:31:32.636Z,3.4
2023-03-19T17:33:06.000Z,3.8
2023-03-19T17:34:05.022Z,3.5
2023-03-19T17:35:38.242Z,3.9
2023-03-19T17:37:17.000Z,4
2023-03-19T17:38:10.000Z,3.6